createdAt,value
2023-01-09T00:00:48.704Z,16.90
2023-01-09T00:03:15.152Z,15.88
2023-01-09T00:05:41.656Z,16.40
2023-01-09T00:08:08.233Z,15.98
2023-01-09T00:10:34.893Z,16.63
2023-01-09T00:13:01.409Z,15.85
2023-01-09T00:15:27.844Z,15.75
2023-01-09T00:17:54.286Z,16.70
2023-01-09T00:20:20.917Z,18.42
2023-01-09T00:22:47.329Z,16.42
2023-01-09T00:25:13.820Z,17.80
2023-01-09T00:27:40.313Z,16.85
2023-01-09T00:30:07.428Z,17.60
2023-01-09T00:32:33.908Z,17.27
2023-01-09T00:35:00.313Z,17.33
2023-01-09T00:37:26.701Z,18.35
2023-01-09T00:39:53.118Z,18.75
2023-01-09T00:42:22.823Z,16.98
2023-01-09T00:44:53.108Z,18.63
2023-01-09T00:49:58.571Z,18.05
2023-01-09T00:52:25.144Z,16.95
2023-01-09T00:54:51.774Z,18.25
2023-01-09T00:57:18.348Z,17.75
2023-01-09T00:59:44.836Z,17.65
2023-01-09T01:02:11.531Z,18.05
2023-01-09T01:04:56.705Z,17.75
2023-01-09T01:07:38.333Z,17.50
2023-01-09T01:10:08.064Z,17.27
2023-01-09T01:12:34.508Z,17.60
2023-01-09T01:15:01.025Z,17.83
2023-01-09T01:17:27.490Z,17.73
2023-01-09T01:19:54.101Z,17.65
2023-01-09T01:22:20.642Z,17.42
2023-01-09T01:24:47.100Z,16.88
2023-01-09T01:27:14.324Z,16.02
2023-01-09T01:29:40.730Z,17.02
2023-01-09T01:32:07.942Z,17.67
2023-01-09T01:34:34.685Z,17.42
2023-01-09T01:37:01.149Z,16.75
2023-01-09T01:39:27.582Z,17.42
2023-01-09T01:41:54.167Z,17.77
2023-01-09T01:44:58.234Z,17.70
2023-01-09T01:47:42.980Z,17.40
2023-01-09T01:50:16.522Z,17.30
2023-01-09T01:52:48.020Z,18.35
2023-01-09T01:55:15.816Z,18.25
2023-01-09T01:57:47.348Z,17.65
2023-01-09T02:00:14.073Z,17.13
2023-01-09T02:02:40.743Z,18.75
2023-01-09T02:05:07.417Z,17.05
2023-01-09T02:07:34.908Z,18.73
2023-01-09T02:10:01.766Z,18.17
2023-01-09T02:12:28.631Z,17.60
2023-01-09T02:15:00.881Z,17.33
2023-01-09T02:18:04.565Z,18.23
2023-01-09T02:20:50.568Z,17.35
2023-01-09T02:23:33.830Z,16.77
2023-01-09T02:26:28.882Z,17.45
2023-01-09T02:29:17.166Z,17.33
2023-01-09T02:31:56.607Z,17.40
2023-01-09T02:34:55.865Z,18.52
2023-01-09T02:37:22.235Z,17.92
2023-01-09T02:40:08.551Z,17.25
2023-01-09T02:42:37.317Z,17.90
2023-01-09T02:45:04.257Z,16.95
2023-01-09T02:47:30.585Z,16.27
2023-01-09T02:50:00.725Z,16.90
2023-01-09T02:52:48.834Z,16.33
2023-01-09T02:55:36.747Z,17.20
2023-01-09T02:58:24.472Z,16.30
2023-01-09T03:01:24.644Z,16.60
2023-01-09T03:04:00.426Z,16.10
2023-01-09T03:06:45.105Z,16.23
2023-01-09T03:09:20.421Z,16.70
2023-01-09T03:11:51.643Z,16.50
2023-01-09T03:14:21.985Z,19.27
2023-01-09T03:16:53.042Z,17.27
2023-01-09T03:19:24.098Z,17.05
2023-01-09T03:21:52.071Z,16.50
2023-01-09T03:24:18.477Z,17.17
2023-01-09T03:26:45.148Z,17.55
2023-01-09T03:29:11.538Z,17.00
2023-01-09T03:31:38.028Z,18.15
2023-01-09T03:34:04.565Z,17.17
2023-01-09T03:36:31.131Z,17.73
2023-01-09T03:38:57.536Z,18.10
2023-01-09T03:41:24.087Z,17.05
2023-01-09T03:43:50.623Z,18.10
2023-01-09T03:46:17.430Z,17.38
2023-01-09T03:48:43.852Z,16.90
2023-01-09T03:51:10.610Z,17.35
2023-01-09T03:53:37.061Z,17.20
2023-01-09T03:56:03.643Z,16.08
2023-01-09T03:58:30.354Z,17.50
2023-01-09T04:01:03.187Z,15.38
2023-01-09T04:03:29.797Z,16.98
2023-01-09T04:05:56.389Z,15.93
2023-01-09T04:08:22.850Z,16.17
2023-01-09T04:10:51.026Z,16.13
2023-01-09T04:13:18.187Z,14.88
2023-01-09T04:15:44.742Z,14.27
2023-01-09T04:18:11.234Z,14.65
2023-01-09T04:20:37.734Z,14.05
2023-01-09T04:23:04.325Z,13.07
2023-01-09T04:25:30.749Z,12.82
2023-01-09T04:27:57.486Z,13.10
2023-01-09T04:30:24.038Z,13.15
2023-01-09T04:32:51.973Z,12.68
2023-01-09T04:35:19.503Z,14.00
2023-01-09T04:37:45.951Z,13.77
2023-01-09T04:40:12.881Z,14.10
2023-01-09T04:42:40.826Z,14.18
2023-01-09T04:45:09.134Z,14.07
2023-01-09T04:47:35.550Z,14.52
2023-01-09T04:50:02.301Z,14.32
2023-01-09T04:52:28.995Z,14.77
2023-01-09T04:54:55.385Z,15.15
2023-01-09T04:57:21.790Z,15.57
2023-01-09T04:59:48.185Z,17.25
2023-01-09T05:02:14.829Z,17.45
2023-01-09T05:04:41.413Z,17.52
2023-01-09T05:07:07.847Z,18.23
2023-01-09T05:09:34.709Z,18.25
2023-01-09T05:12:01.957Z,24.35
2023-01-09T05:14:28.549Z,26.95
2023-01-09T05:16:55.136Z,30.13
2023-01-09T05:19:21.674Z,29.63
2023-01-09T05:21:48.134Z,29.02
2023-01-09T05:24:14.648Z,30.30
2023-01-09T05:26:41.174Z,29.27
2023-01-09T05:29:07.597Z,28.30
2023-01-09T05:31:34.140Z,26.98
2023-01-09T05:34:00.834Z,26.80
2023-01-09T05:36:28.192Z,28.00
2023-01-09T05:38:54.626Z,27.90
2023-01-09T05:41:23.542Z,27.50
2023-01-09T05:43:50.568Z,26.73
2023-01-09T05:46:17.041Z,26.40
2023-01-09T05:48:44.536Z,26.55
2023-01-09T05:51:11.853Z,27.05
2023-01-09T05:53:38.332Z,27.05
2023-01-09T05:56:05.028Z,26.85
2023-01-09T05:58:31.420Z,26.85
2023-01-09T06:00:58.680Z,28.52
2023-01-09T06:03:25.219Z,28.60
2023-01-09T06:05:51.759Z,28.33
2023-01-09T06:08:18.208Z,27.92
2023-01-09T06:10:45.973Z,27.40
2023-01-09T06:13:12.444Z,27.50
2023-01-09T06:15:39.113Z,27.80
2023-01-09T06:18:05.606Z,27.48
2023-01-09T06:20:32.126Z,27.80
2023-01-09T06:22:58.559Z,27.42
2023-01-09T06:25:26.270Z,28.02
2023-01-09T06:27:52.921Z,28.27
2023-01-09T06:30:20.128Z,28.55
2023-01-09T06:32:49.950Z,28.67
2023-01-09T06:35:20.950Z,28.73
2023-01-09T06:37:48.272Z,28.50
2023-01-09T06:40:15.094Z,28.90
2023-01-09T06:42:45.982Z,29.52
2023-01-09T06:45:13.479Z,29.55
2023-01-09T06:47:40.339Z,29.13
2023-01-09T06:50:09.191Z,29.15
2023-01-09T06:52:36.737Z,29.75
2023-01-09T06:55:03.866Z,29.92
2023-01-09T06:57:30.674Z,29.80
2023-01-09T06:59:57.802Z,31.42
2023-01-09T07:02:24.234Z,31.73
2023-01-09T07:04:50.633Z,32.08
2023-01-09T07:07:18.401Z,33.30
2023-01-09T07:09:44.882Z,32.95
2023-01-09T07:12:11.272Z,33.58
2023-01-09T07:14:37.712Z,32.60
2023-01-09T07:17:04.151Z,34.38
2023-01-09T07:19:30.541Z,33.65
2023-01-09T07:21:56.955Z,34.78
2023-01-09T07:24:23.552Z,35.03
2023-01-09T07:26:50.034Z,34.67
2023-01-09T07:29:16.473Z,36.65
2023-01-09T07:31:43.037Z,34.97
2023-01-09T07:34:09.436Z,35.55
2023-01-09T07:36:35.846Z,36.20
2023-01-09T07:39:02.349Z,37.50
2023-01-09T07:41:28.795Z,37.35
2023-01-09T07:43:57.033Z,38.00
2023-01-09T07:46:23.545Z,39.53
2023-01-09T07:48:49.951Z,39.15
2023-01-09T07:51:16.428Z,38.00
2023-01-09T07:53:42.827Z,39.10
2023-01-09T07:56:09.248Z,39.83
2023-01-09T07:58:35.732Z,41.00
2023-01-09T08:01:02.209Z,42.15
2023-01-09T08:03:28.786Z,42.08
2023-01-09T08:05:55.337Z,41.40
2023-01-09T08:08:22.661Z,41.17
2023-01-09T08:10:49.132Z,41.95
2023-01-09T08:13:15.595Z,41.22
2023-01-09T08:15:42.061Z,41.75
2023-01-09T08:18:08.771Z,40.67
2023-01-09T08:20:35.209Z,42.42
2023-01-09T08:23:01.751Z,40.40
2023-01-09T08:25:28.113Z,41.20
2023-01-09T08:27:54.530Z,42.55
2023-01-09T08:30:21.576Z,41.58
2023-01-09T08:32:50.757Z,41.30
2023-01-09T08:35:17.502Z,42.55
2023-01-09T08:37:45.615Z,41.47
2023-01-09T08:40:13.562Z,41.95
2023-01-09T08:42:59.341Z,41.42
2023-01-09T08:45:44.210Z,41.63
2023-01-09T08:48:10.826Z,42.35
2023-01-09T08:50:37.604Z,41.53
2023-01-09T08:53:04.244Z,41.50
2023-01-09T08:55:30.715Z,41.97
2023-01-09T08:57:57.193Z,43.45
2023-01-09T09:00:24.968Z,41.50
2023-01-09T09:02:58.478Z,42.05
2023-01-09T09:05:26.581Z,39.67
2023-01-09T09:07:54.838Z,48.70
2023-01-09T09:10:23.726Z,48.35
2023-01-09T09:12:53.109Z,40.97
2023-01-09T09:15:24.116Z,41.63
2023-01-09T09:17:59.395Z,40.80
2023-01-09T09:20:29.197Z,41.78
2023-01-09T09:22:55.592Z,43.05
2023-01-09T09:25:22.767Z,39.88
2023-01-09T09:27:49.635Z,46.65
2023-01-09T09:30:18.222Z,42.88
2023-01-09T09:32:45.605Z,52.33
2023-01-09T09:35:12.420Z,46.33
2023-01-09T09:37:39.086Z,43.70
2023-01-09T09:40:17.921Z,40.10
2023-01-09T09:43:26.464Z,50.13
2023-01-09T09:46:02.787Z,39.85
2023-01-09T09:48:44.419Z,38.33
2023-01-09T09:51:22.420Z,38.17
2023-01-09T09:53:53.797Z,42.95
2023-01-09T09:56:23.136Z,36.00
2023-01-09T09:58:53.960Z,39.93
2023-01-09T10:01:33.612Z,35.75
2023-01-09T10:04:04.430Z,35.08
2023-01-09T10:06:34.204Z,36.00
2023-01-09T10:09:25.406Z,39.50
2023-01-09T10:11:54.727Z,35.17
2023-01-09T10:14:24.656Z,31.67
2023-01-09T10:17:03.436Z,30.25
2023-01-09T10:19:33.118Z,39.22
2023-01-09T10:22:47.316Z,41.97
2023-01-09T10:25:47.215Z,31.65
2023-01-09T10:28:31.834Z,38.85
2023-01-09T10:31:24.627Z,32.35
2023-01-09T10:34:14.716Z,32.58
2023-01-09T10:36:47.026Z,30.90
2023-01-09T10:39:34.507Z,31.75
2023-01-09T10:42:22.802Z,33.38
2023-01-09T10:44:56.207Z,29.42
2023-01-09T10:47:35.213Z,30.65
2023-01-09T10:50:18.062Z,29.92
2023-01-09T10:52:45.632Z,21.55
2023-01-09T10:55:39.690Z,35.47
2023-01-09T10:58:14.612Z,33.60
2023-01-09T11:00:42.112Z,27.15
2023-01-09T11:03:21.161Z,29.63
2023-01-09T11:05:54.373Z,30.02
2023-01-09T11:08:35.673Z,33.97
2023-01-09T11:11:03.098Z,28.45
2023-01-09T11:13:34.374Z,23.83
2023-01-09T11:16:23.509Z,26.48
2023-01-09T11:18:54.291Z,22.00
2023-01-09T11:21:34.054Z,26.73
2023-01-09T11:24:18.890Z,24.33
2023-01-09T11:26:47.043Z,28.50
2023-01-09T11:29:19.081Z,27.50
2023-01-09T11:31:58.211Z,23.10
2023-01-09T11:34:31.468Z,38.40
2023-01-09T11:37:10.568Z,27.33
2023-01-09T11:39:41.225Z,22.58
2023-01-09T11:42:20.199Z,18.95
2023-01-09T11:44:46.736Z,21.25
2023-01-09T11:47:39.129Z,27.00
2023-01-09T11:50:20.676Z,29.23
2023-01-09T11:53:07.258Z,25.08
2023-01-09T11:55:41.823Z,21.70
2023-01-09T11:58:17.803Z,24.73
2023-01-09T12:00:50.693Z,19.27
2023-01-09T12:03:51.186Z,17.08
2023-01-09T12:06:27.559Z,18.73
2023-01-09T12:09:04.831Z,21.77
2023-01-09T12:12:03.044Z,18.70
2023-01-09T12:14:50.583Z,19.17
2023-01-09T12:17:29.797Z,15.05
2023-01-09T12:20:20.817Z,17.88
2023-01-09T12:23:00.975Z,20.27
2023-01-09T12:25:56.790Z,20.83
2023-01-09T12:28:38.466Z,23.00
2023-01-09T12:31:07.787Z,18.05
2023-01-09T12:33:46.818Z,19.83
2023-01-09T12:36:25.648Z,17.98
2023-01-09T12:38:51.974Z,21.70
2023-01-09T12:41:53.412Z,29.80
2023-01-09T12:44:48.181Z,16.15
2023-01-09T12:47:34.843Z,26.05
2023-01-09T12:50:19.820Z,24.95
2023-01-09T12:53:07.669Z,25.73
2023-01-09T12:55:39.698Z,28.98
2023-01-09T12:58:41.336Z,25.83
2023-01-09T13:01:15.155Z,22.13
2023-01-09T13:03:47.363Z,30.10
2023-01-09T13:06:18.025Z,23.50
2023-01-09T13:08:53.242Z,30.00
2023-01-09T13:11:31.823Z,26.48
2023-01-09T13:14:22.035Z,36.85
2023-01-09T13:16:52.416Z,32.35
2023-01-09T13:19:36.818Z,26.98
2023-01-09T13:22:05.723Z,45.55
2023-01-09T13:24:53.339Z,33.60
2023-01-09T13:27:22.954Z,31.05
2023-01-09T13:30:06.615Z,31.15
2023-01-09T13:33:11.924Z,33.45
2023-01-09T13:35:53.744Z,33.53
2023-01-09T13:38:23.737Z,32.42
2023-01-09T13:41:28.960Z,31.27
2023-01-09T13:43:59.582Z,25.15
2023-01-09T13:46:43.275Z,27.70
2023-01-09T13:49:43.803Z,26.95
2023-01-09T13:52:39.254Z,28.58
2023-01-09T13:55:11.952Z,21.13
2023-01-09T13:57:43.255Z,22.77
2023-01-09T14:00:12.698Z,22.35
2023-01-09T14:02:39.093Z,23.90
2023-01-09T14:05:11.304Z,25.08
2023-01-09T14:07:40.348Z,22.80
2023-01-09T14:10:25.412Z,21.38
2023-01-09T14:12:55.708Z,22.63
2023-01-09T14:17:49.771Z,27.15
2023-01-09T14:20:34.570Z,24.35
2023-01-09T14:25:48.556Z,21.73
2023-01-09T14:28:28.950Z,28.05
2023-01-09T14:30:55.374Z,28.38
2023-01-09T14:33:25.432Z,27.60
2023-01-09T14:35:56.568Z,31.85
2023-01-09T14:38:34.482Z,32.20
2023-01-09T14:41:07.545Z,24.38
2023-01-09T14:43:53.421Z,19.13
2023-01-09T14:46:24.157Z,17.75
2023-01-09T14:49:19.148Z,19.88
2023-01-09T14:51:51.695Z,24.80
2023-01-09T14:54:29.160Z,25.27
2023-01-09T14:57:05.744Z,20.73
2023-01-09T14:59:38.686Z,19.73
2023-01-09T15:02:11.157Z,18.50
2023-01-09T15:04:41.967Z,22.88
2023-01-09T15:07:32.401Z,20.50
2023-01-09T15:10:05.116Z,18.38
2023-01-09T15:12:40.146Z,19.48
2023-01-09T15:15:13.135Z,17.63
2023-01-09T15:17:43.087Z,20.83
2023-01-09T15:20:20.703Z,20.75
2023-01-09T15:22:54.507Z,17.85
2023-01-09T15:25:39.016Z,19.70
2023-01-09T15:28:28.924Z,19.50
2023-01-09T15:31:02.942Z,22.17
2023-01-09T15:33:29.897Z,19.27
2023-01-09T15:36:02.059Z,20.20
2023-01-09T15:38:34.416Z,19.80
2023-01-09T15:41:06.806Z,19.55
2023-01-09T15:43:34.808Z,20.48
2023-01-09T15:46:01.573Z,20.63
2023-01-09T15:48:32.370Z,20.88
2023-01-09T15:51:02.489Z,23.35
2023-01-09T15:53:29.758Z,22.85
2023-01-09T15:56:30.268Z,21.85
2023-01-09T15:58:58.489Z,21.75
2023-01-09T16:01:30.347Z,30.35
2023-01-09T16:04:16.385Z,24.45
2023-01-09T16:06:51.034Z,24.83
2023-01-09T16:09:21.831Z,22.88
2023-01-09T16:11:55.384Z,23.27
2023-01-09T16:14:38.685Z,23.55
2023-01-09T16:17:08.800Z,23.50
2023-01-09T16:19:41.409Z,24.98
2023-01-09T16:22:27.833Z,23.30
2023-01-09T16:24:57.400Z,25.95
2023-01-09T16:27:33.327Z,22.23
2023-01-09T16:30:06.692Z,22.35
2023-01-09T16:32:35.733Z,23.75
2023-01-09T16:35:06.199Z,26.30
2023-01-09T16:37:33.754Z,25.13
2023-01-09T16:40:18.524Z,25.75
2023-01-09T16:43:01.286Z,26.30
2023-01-09T16:45:32.316Z,27.88
2023-01-09T16:47:59.455Z,24.75
2023-01-09T16:50:26.447Z,32.28
2023-01-09T16:52:52.968Z,29.65
2023-01-09T16:55:19.510Z,32.22
2023-01-09T16:57:46.021Z,60.72
2023-01-09T17:00:18.434Z,36.83
2023-01-09T17:02:45.274Z,32.22
2023-01-09T17:05:11.864Z,29.80
2023-01-09T17:07:38.285Z,27.92
2023-01-09T17:10:06.097Z,27.83
2023-01-09T17:12:32.544Z,32.05
2023-01-09T17:15:00.866Z,32.80
2023-01-09T17:17:27.488Z,36.65
2023-01-09T17:19:53.915Z,29.88
2023-01-09T17:22:20.381Z,37.55
2023-01-09T17:25:08.742Z,39.47
2023-01-09T17:27:56.197Z,108.03
2023-01-09T17:30:22.898Z,58.97
2023-01-09T17:32:49.481Z,41.67
2023-01-09T17:35:16.296Z,44.58
2023-01-09T17:37:43.113Z,41.97
2023-01-09T17:40:20.816Z,33.90
2023-01-09T17:42:47.268Z,29.33
2023-01-09T17:45:14.246Z,28.55
2023-01-09T17:47:40.926Z,30.92
2023-01-09T17:50:15.897Z,29.58
2023-01-09T17:52:42.410Z,30.50
2023-01-09T17:55:09.318Z,31.08
2023-01-09T17:57:35.717Z,30.00
2023-01-09T18:00:02.472Z,32.67
2023-01-09T18:02:28.923Z,32.97
2023-01-09T18:04:55.388Z,35.33
2023-01-09T18:07:21.891Z,33.20
2023-01-09T18:09:48.549Z,29.63
2023-01-09T18:12:14.974Z,33.05
2023-01-09T18:14:42.150Z,37.75
2023-01-09T18:17:11.988Z,36.25
2023-01-09T18:19:38.521Z,52.60
2023-01-09T18:22:04.979Z,37.15
2023-01-09T18:24:31.368Z,38.75
2023-01-09T18:26:57.767Z,45.38
2023-01-09T18:29:24.283Z,43.65
2023-01-09T18:31:51.685Z,41.13
2023-01-09T18:34:18.131Z,48.85
2023-01-09T18:36:44.636Z,45.17
2023-01-09T18:39:12.102Z,37.50
2023-01-09T18:41:38.484Z,49.47
2023-01-09T18:44:05.032Z,44.92
2023-01-09T18:46:32.311Z,46.65
2023-01-09T18:49:01.133Z,49.60
2023-01-09T18:51:28.689Z,47.65
2023-01-09T18:53:55.799Z,45.08
2023-01-09T18:56:23.287Z,46.17
2023-01-09T18:58:49.801Z,44.17
2023-01-09T19:01:16.438Z,51.53
2023-01-09T19:03:43.289Z,62.40
2023-01-09T19:06:10.630Z,47.83
2023-01-09T19:08:37.140Z,52.17
2023-01-09T19:11:04.352Z,46.90
2023-01-09T19:13:33.152Z,55.28
2023-01-09T19:16:00.847Z,54.40
2023-01-09T19:18:29.320Z,52.70
2023-01-09T19:20:55.817Z,55.50
2023-01-09T19:23:25.638Z,48.40
2023-01-09T19:25:53.788Z,71.80
2023-01-09T19:28:21.039Z,58.03
2023-01-09T19:30:47.455Z,55.17
2023-01-09T19:33:13.877Z,53.55
2023-01-09T19:35:40.385Z,53.35
2023-01-09T19:38:06.804Z,53.42
2023-01-09T19:40:33.222Z,66.05
2023-01-09T19:42:59.645Z,52.15
2023-01-09T19:45:26.039Z,54.53
2023-01-09T19:47:52.528Z,52.53
2023-01-09T19:50:19.103Z,55.00
2023-01-09T19:52:45.733Z,56.53
2023-01-09T19:55:14.144Z,60.25
2023-01-09T19:57:44.185Z,52.78
2023-01-09T20:00:12.622Z,54.72
2023-01-09T20:02:39.553Z,54.60
2023-01-09T20:05:07.295Z,57.42
2023-01-09T20:07:34.847Z,57.78
2023-01-09T20:10:01.511Z,57.33
2023-01-09T20:12:27.914Z,56.55
2023-01-09T20:14:54.365Z,54.08
2023-01-09T20:17:20.845Z,55.33
2023-01-09T20:19:47.232Z,53.08
2023-01-09T20:22:13.782Z,54.47
2023-01-09T20:24:40.364Z,53.65
2023-01-09T20:27:07.209Z,56.90
2023-01-09T20:29:33.802Z,57.75
2023-01-09T20:32:01.248Z,54.92
2023-01-09T20:34:27.716Z,55.38
2023-01-09T20:36:54.676Z,50.50
2023-01-09T20:39:21.555Z,57.55
2023-01-09T20:41:48.379Z,54.13
2023-01-09T20:44:15.689Z,49.78
2023-01-09T20:46:47.362Z,56.42
2023-01-09T20:49:15.975Z,63.00
2023-01-09T20:51:48.245Z,55.83
2023-01-09T20:54:16.313Z,54.13
2023-01-09T20:56:44.145Z,54.67
2023-01-09T20:59:16.942Z,54.15
2023-01-09T21:01:43.651Z,55.83
2023-01-09T21:04:10.219Z,56.10
2023-01-09T21:06:36.810Z,47.60
2023-01-09T21:09:05.026Z,58.95
2023-01-09T21:11:33.558Z,59.72
2023-01-09T21:14:00.193Z,56.65
2023-01-09T21:16:26.885Z,56.53
2023-01-09T21:18:54.750Z,61.45
2023-01-09T21:21:24.489Z,60.75
2023-01-09T21:23:53.442Z,53.10
2023-01-09T21:26:24.775Z,62.60
2023-01-09T21:28:55.159Z,57.90
2023-01-09T21:31:29.847Z,60.45
2023-01-09T21:33:56.522Z,60.22
2023-01-09T21:36:23.283Z,61.30
2023-01-09T21:38:52.097Z,57.55
2023-01-09T21:41:38.255Z,58.40
2023-01-09T21:44:24.738Z,61.72
2023-01-09T21:46:55.844Z,58.08
2023-01-09T21:49:25.404Z,62.30
2023-01-09T21:51:55.704Z,56.33
2023-01-09T21:56:50.774Z,62.25
2023-01-09T21:59:17.363Z,58.60
2023-01-09T22:01:44.156Z,53.38
2023-01-09T22:04:14.829Z,58.40
2023-01-09T22:06:41.361Z,54.45
2023-01-09T22:09:07.847Z,51.80
2023-01-09T22:11:34.306Z,57.42
2023-01-09T22:14:00.731Z,55.60
2023-01-09T22:16:27.923Z,55.40
2023-01-09T22:18:55.986Z,54.50
2023-01-09T22:21:23.541Z,47.10
2023-01-09T22:23:50.510Z,60.88
2023-01-09T22:26:18.553Z,46.83
2023-01-09T22:28:46.021Z,54.35
2023-01-09T22:31:16.896Z,56.05
2023-01-09T22:33:43.701Z,53.95
2023-01-09T22:36:12.065Z,54.10
2023-01-09T22:38:38.491Z,63.13
2023-01-09T22:41:05.280Z,56.20
2023-01-09T22:43:32.255Z,60.97
2023-01-09T22:46:03.457Z,63.10
2023-01-09T22:48:34.621Z,62.67
2023-01-09T22:51:02.760Z,57.85
2023-01-09T22:53:30.724Z,55.35
2023-01-09T22:55:59.239Z,65.95
2023-01-09T22:58:27.265Z,57.85
2023-01-09T23:00:54.482Z,68.10
2023-01-09T23:03:21.004Z,54.75
2023-01-09T23:05:47.428Z,58.17
2023-01-09T23:08:14.487Z,55.70
2023-01-09T23:10:42.221Z,63.60
2023-01-09T23:13:08.667Z,63.38
2023-01-09T23:15:35.229Z,59.95
2023-01-09T23:18:01.643Z,59.03
2023-01-09T23:20:28.025Z,49.97
2023-01-09T23:22:54.437Z,60.92
2023-01-09T23:25:20.939Z,49.75
2023-01-09T23:27:47.385Z,53.15
2023-01-09T23:30:14.053Z,49.70
2023-01-09T23:32:40.489Z,47.50
2023-01-09T23:35:07.265Z,48.53
2023-01-09T23:37:34.102Z,45.00
2023-01-09T23:40:00.539Z,65.65
2023-01-09T23:42:45.438Z,61.75
2023-01-09T23:45:11.891Z,54.03
2023-01-09T23:47:38.364Z,47.70
2023-01-09T23:50:06.916Z,48.22
2023-01-09T23:52:33.315Z,51.60
2023-01-09T23:54:59.777Z,42.90
2023-01-09T23:57:26.187Z,46.50
2023-01-09T23:59:52.564Z,41.60
